Miami, FL (33175)

1:29 PM EDT on July 02, 2015 (GMT -0400)
Southwest Miami-Dade | | Change Station
CLOSE
Current Station
Personal Weather Station
Location: Miami, FL
Elevation: 26 ft
Nearby Weather Stations

Elev 26 ft 25.76 °N, 80.44 °W | Updated 6 minutes ago

Clear
Clear
93.0 °F
Feels Like 101 °F
N
2.2
Wind Variable Wind from WSW

Today
High -- | Low -- °F
--% Chance of Precip.
Yesterday
High -- | Low -- °F
Precip. -- in
6:34 AM 8:17 PM
Waxing Gibbous, 99% visible
Pressure 30.12 in
Visibility 10.0 miles
Clouds Few 3800 ft
Heat Index 101 °F
Dew Point 72 °F
Humidity 51%
Rainfall 0.15 in
Snow Depth Not available.
UV 15 out of 12
Pollen 4.00 out of 12
Air Quality Not available.
Flu Activity Not available.
METAR KTMB 021653Z 10006KT 10SM FEW038 32/23 A3012 RMK AO2 SLP200 T03220228

More Conditions Fewer Conditions

Pressure 30.12 in
Visibility 10.0 miles
Clouds Few 3800 ft
Heat Index 101 °F
Dew Point 72 °F
Humidity 51%
Rainfall 0.15 in
Snow Depth Not available.
UV 15 out of 12
Pollen 4.00 out of 12
Air Quality Not available.
Flu Activity Not available.
METAR KTMB 021653Z 10006KT 10SM FEW038 32/23 A3012 RMK AO2 SLP200 T03220228

More Conditions Fewer Conditions

10-Day Weather Forecast

×

Almanac

Astronomy

Jul. 02, 2015 Rise Set
Actual Time
Civil Twilight
Nautical Twilight
Astronomical Twilight
Moon
Length of Visible Light
Length of Day
Tomorrow will be .
, % of the Moon is Illuminated

Today's Extremes

State Highs State Lows

Community

WunderPhotos

Upload Photos

1,834,504 photos uploaded!

WunderBlogs® & News

Nearby

Air Quality

  Air Quality AQ Index Pollutant
Not available.

Snow Depth

Station Depth Elevation

Earthquake Activity

City Distance Mag. Time & Date
Minimum magnitude displayed is 2.5.

Coastal Water Temperatures

Place Temperature

Stations

Nearby Weather Stations

Station Location Temp. Windchill Dew Point Humidity Wind Precip. Elev Updated Type